sensor_id;sensor_type;location;lat;lon;timestamp;pressure;altitude;pressure_sealevel;temperature
64458;BMP280;58438;51.200;7.252;2024-03-02T00:02:16;96221.91;;;6.27
64458;BMP280;58438;51.200;7.252;2024-03-02T00:05:04;96234.22;;;6.28
64458;BMP280;58438;51.200;7.252;2024-03-02T00:07:52;96221.75;;;6.36
64458;BMP280;58438;51.200;7.252;2024-03-02T00:10:41;96236.44;;;6.29
64458;BMP280;58438;51.200;7.252;2024-03-02T00:13:28;96221.44;;;6.28
64458;BMP280;58438;51.200;7.252;2024-03-02T00:16:17;96220.97;;;6.35
64458;BMP280;58438;51.200;7.252;2024-03-02T00:19:04;96212.84;;;6.30
64458;BMP280;58438;51.200;7.252;2024-03-02T00:21:52;96223.91;;;6.32
64458;BMP280;58438;51.200;7.252;2024-03-02T00:24:39;96229.63;;;6.34
64458;BMP280;58438;51.200;7.252;2024-03-02T00:27:27;96228.59;;;6.31
64458;BMP280;58438;51.200;7.252;2024-03-02T00:30:26;96237.44;;;6.32
64458;BMP280;58438;51.200;7.252;2024-03-02T00:33:23;96226.63;;;6.32
64458;BMP280;58438;51.200;7.252;2024-03-02T00:41:44;96235.50;;;6.38
64458;BMP280;58438;51.200;7.252;2024-03-02T00:53:08;96222.81;;;6.44
64458;BMP280;58438;51.200;7.252;2024-03-02T00:55:57;96214.00;;;6.49
64458;BMP280;58438;51.200;7.252;2024-03-02T00:58:44;96210.31;;;6.52
64458;BMP280;58438;51.200;7.252;2024-03-02T01:01:31;96210.50;;;6.43
64458;BMP280;58438;51.200;7.252;2024-03-02T01:04:20;96202.88;;;6.47
64458;BMP280;58438;51.200;7.252;2024-03-02T01:07:09;96217.41;;;6.44
64458;BMP280;58438;51.200;7.252;2024-03-02T01:10:00;96216.94;;;6.51
64458;BMP280;58438;51.200;7.252;2024-03-02T01:12:50;96210.78;;;6.45
64458;BMP280;58438;51.200;7.252;2024-03-02T01:18:28;96211.75;;;6.47
64458;BMP280;58438;51.200;7.252;2024-03-02T01:21:18;96215.91;;;6.43
64458;BMP280;58438;51.200;7.252;2024-03-02T01:24:07;96212.59;;;6.59
64458;BMP280;58438;51.200;7.252;2024-03-02T01:29:47;96212.47;;;6.48
64458;BMP280;58438;51.200;7.252;2024-03-02T01:32:37;96221.88;;;6.52
64458;BMP280;58438;51.200;7.252;2024-03-02T01:35:27;96211.75;;;6.47
64458;BMP280;58438;51.200;7.252;2024-03-02T01:38:16;96216.75;;;6.60
64458;BMP280;58438;51.200;7.252;2024-03-02T01:41:05;96215.50;;;6.55
64458;BMP280;58438;51.200;7.252;2024-03-02T01:43:55;96221.19;;;6.57
64458;BMP280;58438;51.200;7.252;2024-03-02T01:52:23;96220.44;;;6.57
64458;BMP280;58438;51.200;7.252;2024-03-02T01:55:13;96223.41;;;6.59
64458;BMP280;58438;51.200;7.252;2024-03-02T02:00:51;96231.25;;;6.57
64458;BMP280;58438;51.200;7.252;2024-03-02T02:03:41;96222.16;;;6.60
64458;BMP280;58438;51.200;7.252;2024-03-02T02:06:30;96222.66;;;6.58
64458;BMP280;58438;51.200;7.252;2024-03-02T02:09:21;96217.31;;;6.64
64458;BMP280;58438;51.200;7.252;2024-03-02T02:12:12;96221.94;;;6.63
64458;BMP280;58438;51.200;7.252;2024-03-02T02:15:02;96215.06;;;6.62
64458;BMP280;58438;51.200;7.252;2024-03-02T02:17:51;96217.78;;;6.62
64458;BMP280;58438;51.200;7.252;2024-03-02T02:23:31;96201.97;;;6.50
64458;BMP280;58438;51.200;7.252;2024-03-02T02:26:20;96208.13;;;6.56
64458;BMP280;58438;51.200;7.252;2024-03-02T02:29:10;96214.06;;;6.60
64458;BMP280;58438;51.200;7.252;2024-03-02T02:31:59;96219.72;;;6.62
64458;BMP280;58438;51.200;7.252;2024-03-02T02:37:36;96225.84;;;6.57
64458;BMP280;58438;51.200;7.252;2024-03-02T02:40:26;96209.63;;;6.57
64458;BMP280;58438;51.200;7.252;2024-03-02T02:43:15;96224.63;;;6.58
64458;BMP280;58438;51.200;7.252;2024-03-02T02:46:02;96214.06;;;6.60
64458;BMP280;58438;51.200;7.252;2024-03-02T02:51:38;96222.22;;;6.65
64458;BMP280;58438;51.200;7.252;2024-03-02T02:54:25;96214.84;;;6.66
64458;BMP280;58438;51.200;7.252;2024-03-02T03:00:00;96211.13;;;6.63
64458;BMP280;58438;51.200;7.252;2024-03-02T03:02:50;96203.78;;;6.64
64458;BMP280;58438;51.200;7.252;2024-03-02T03:05:37;96217.34;;;6.75
64458;BMP280;58438;51.200;7.252;2024-03-02T03:08:24;96205.53;;;6.67
64458;BMP280;58438;51.200;7.252;2024-03-02T03:11:11;96212.94;;;6.72
64458;BMP280;58438;51.200;7.252;2024-03-02T03:13:58;96216.13;;;6.70
64458;BMP280;58438;51.200;7.252;2024-03-02T03:16:48;96209.44;;;6.66
64458;BMP280;58438;51.200;7.252;2024-03-02T03:19:37;96207.25;;;6.70
64458;BMP280;58438;51.200;7.252;2024-03-02T03:22:25;96210.97;;;6.72
64458;BMP280;58438;51.200;7.252;2024-03-02T03:25:12;96209.00;;;6.73
64458;BMP280;58438;51.200;7.252;2024-03-02T03:27:59;96211.19;;;6.69
64458;BMP280;58438;51.200;7.252;2024-03-02T03:30:48;96218.50;;;6.63
64458;BMP280;58438;51.200;7.252;2024-03-02T03:33:37;96214.34;;;6.67
64458;BMP280;58438;51.200;7.252;2024-03-02T03:36:24;96211.59;;;6.62
64458;BMP280;58438;51.200;7.252;2024-03-02T03:39:11;96213.38;;;6.65
64458;BMP280;58438;51.200;7.252;2024-03-02T03:41:58;96228.13;;;6.64
64458;BMP280;58438;51.200;7.252;2024-03-02T03:44:45;96220.00;;;6.64
64458;BMP280;58438;51.200;7.252;2024-03-02T03:47:32;96230.88;;;6.75
64458;BMP280;58438;51.200;7.252;2024-03-02T03:50:21;96221.78;;;6.72
64458;BMP280;58438;51.200;7.252;2024-03-02T03:53:08;96227.88;;;6.67
64458;BMP280;58438;51.200;7.252;2024-03-02T03:55:55;96220.06;;;6.75
64458;BMP280;58438;51.200;7.252;2024-03-02T03:58:42;96212.88;;;6.66
64458;BMP280;58438;51.200;7.252;2024-03-02T04:01:30;96222.75;;;6.69
64458;BMP280;58438;51.200;7.252;2024-03-02T04:04:17;96226.88;;;6.65
64458;BMP280;58438;51.200;7.252;2024-03-02T04:07:05;96229.09;;;6.66
64458;BMP280;58438;51.200;7.252;2024-03-02T04:12:39;96218.94;;;6.56
64458;BMP280;58438;51.200;7.252;2024-03-02T04:15:27;96229.09;;;6.66
64458;BMP280;58438;51.200;7.252;2024-03-02T04:18:14;96227.16;;;6.67
64458;BMP280;58438;51.200;7.252;2024-03-02T04:21:01;96227.81;;;6.62
64458;BMP280;58438;51.200;7.252;2024-03-02T04:23:50;96228.13;;;6.64
64458;BMP280;58438;51.200;7.252;2024-03-02T04:26:37;96225.13;;;6.62
64458;BMP280;58438;51.200;7.252;2024-03-02T04:29:24;96224.13;;;6.59
64458;BMP280;58438;51.200;7.252;2024-03-02T04:32:11;96223.97;;;6.68
64458;BMP280;58438;51.200;7.252;2024-03-02T04:34:58;96217.78;;;6.62
64458;BMP280;58438;51.200;7.252;2024-03-02T04:37:45;96212.06;;;6.55
64458;BMP280;58438;51.200;7.252;2024-03-02T04:40:34;96223.41;;;6.59
64458;BMP280;58438;51.200;7.252;2024-03-02T04:43:21;96228.81;;;6.59
64458;BMP280;58438;51.200;7.252;2024-03-02T05:30:57;96238.66;;;6.05
64458;BMP280;58438;51.200;7.252;2024-03-02T05:33:44;96248.47;;;6.03
64458;BMP280;58438;51.200;7.252;2024-03-02T05:36:31;96240.06;;;6.01
64458;BMP280;58438;51.200;7.252;2024-03-02T05:39:18;96237.88;;;5.99
64458;BMP280;58438;51.200;7.252;2024-03-02T05:42:06;96237.66;;;6.03
64458;BMP280;58438;51.200;7.252;2024-03-02T05:44:53;96232.94;;;5.98
64458;BMP280;58438;51.200;7.252;2024-03-02T05:47:41;96238.81;;;5.96
64458;BMP280;58438;51.200;7.252;2024-03-02T05:50:28;96235.03;;;5.88
64458;BMP280;58438;51.200;7.252;2024-03-02T05:53:15;96224.50;;;5.90
64458;BMP280;58438;51.200;7.252;2024-03-02T05:58:50;96202.31;;;5.81
64458;BMP280;58438;51.200;7.252;2024-03-02T06:01:52;96203.97;;;5.73
64458;BMP280;58438;51.200;7.252;2024-03-02T06:54:46;96237.03;;;5.48
64458;BMP280;58438;51.200;7.252;2024-03-02T06:57:33;96234.06;;;5.46
64458;BMP280;58438;51.200;7.252;2024-03-02T07:00:21;96232.91;;;5.52
64458;BMP280;58438;51.200;7.252;2024-03-02T07:03:08;96235.06;;;5.68
64458;BMP280;58438;51.200;7.252;2024-03-02T07:05:55;96232.84;;;5.67
64458;BMP280;58438;51.200;7.252;2024-03-02T07:08:42;96219.59;;;5.69
64458;BMP280;58438;51.200;7.252;2024-03-02T07:11:31;96221.34;;;5.72
64458;BMP280;58438;51.200;7.252;2024-03-02T07:14:19;96232.44;;;5.74
64458;BMP280;58438;51.200;7.252;2024-03-02T07:17:06;96227.97;;;5.71
64458;BMP280;58438;51.200;7.252;2024-03-02T07:19:53;96228.16;;;5.67
64458;BMP280;58438;51.200;7.252;2024-03-02T07:22:41;96227.03;;;5.74
64458;BMP280;58438;51.200;7.252;2024-03-02T07:25:30;96242.53;;;5.79
64458;BMP280;58438;51.200;7.252;2024-03-02T07:28:21;96236.47;;;5.84
64458;BMP280;58438;51.200;7.252;2024-03-02T07:31:08;96245.03;;;5.82
64458;BMP280;58438;51.200;7.252;2024-03-02T07:33:55;96248.53;;;5.88
64458;BMP280;58438;51.200;7.252;2024-03-02T07:36:42;96249.59;;;5.96
64458;BMP280;58438;51.200;7.252;2024-03-02T07:42:17;96257.75;;;6.02
64458;BMP280;58438;51.200;7.252;2024-03-02T07:45:06;96269.84;;;6.06
64458;BMP280;58438;51.200;7.252;2024-03-02T07:47:53;96285.28;;;6.26
64458;BMP280;58438;51.200;7.252;2024-03-02T07:50:40;96292.97;;;6.33
64458;BMP280;58438;51.200;7.252;2024-03-02T07:53:28;96314.00;;;6.49
64458;BMP280;58438;51.200;7.252;2024-03-02T07:56:16;96295.22;;;6.40
64458;BMP280;58438;51.200;7.252;2024-03-02T07:59:08;96295.34;;;6.51
64458;BMP280;58438;51.200;7.252;2024-03-02T08:01:56;96315.09;;;6.62
64458;BMP280;58438;51.200;7.252;2024-03-02T08:04:43;96317.84;;;6.68
64458;BMP280;58438;51.200;7.252;2024-03-02T08:07:32;96322.34;;;6.76
64458;BMP280;58438;51.200;7.252;2024-03-02T08:10:19;96319.69;;;6.82
64458;BMP280;58438;51.200;7.252;2024-03-02T08:13:06;96325.94;;;6.98
64458;BMP280;58438;51.200;7.252;2024-03-02T08:15:53;96330.19;;;7.05
64458;BMP280;58438;51.200;7.252;2024-03-02T08:18:42;96328.78;;;7.15
64458;BMP280;58438;51.200;7.252;2024-03-02T08:21:30;96335.63;;;7.10
64458;BMP280;58438;51.200;7.252;2024-03-02T08:24:17;96330.28;;;7.16
64458;BMP280;58438;51.200;7.252;2024-03-02T08:27:05;96342.72;;;7.39
64458;BMP280;58438;51.200;7.252;2024-03-02T08:32:39;96345.00;;;7.51
64458;BMP280;58438;51.200;7.252;2024-03-02T08:35:28;96349.66;;;7.51
64458;BMP280;58438;51.200;7.252;2024-03-02T08:54:58;96373.63;;;8.22
